createdAt,value
2019-03-08T00:01:24.237Z,98035.59
2019-03-08T00:03:50.929Z,98027.18
2019-03-08T00:06:19.328Z,98027.66
2019-03-08T00:08:47.480Z,98028.73
2019-03-08T00:11:14.204Z,98034.23
2019-03-08T00:13:40.942Z,98032.92
2019-03-08T00:16:07.991Z,98048.69
2019-03-08T00:18:34.727Z,98054.80
2019-03-08T00:21:01.474Z,98072.67
2019-03-08T00:23:28.206Z,98059.03
2019-03-08T00:25:54.908Z,98062.19
2019-03-08T00:28:21.663Z,98069.00
2019-03-08T00:30:48.388Z,98062.98
2019-03-08T00:33:15.513Z,98074.53
2019-03-08T00:35:42.198Z,98075.05
2019-03-08T00:38:08.918Z,98074.55
2019-03-08T00:40:35.661Z,98086.38
2019-03-08T00:43:02.502Z,98086.91
2019-03-08T00:45:29.240Z,98088.45
2019-03-08T00:47:55.966Z,98097.93
2019-03-08T00:50:23.113Z,98101.86
2019-03-08T00:52:49.845Z,98093.69
2019-03-08T00:55:16.552Z,98099.99
2019-03-08T00:57:43.263Z,98103.16
2019-03-08T01:00:12.513Z,98095.02
2019-03-08T01:02:39.536Z,98120.20
2019-03-08T01:05:06.956Z,98102.59
2019-03-08T01:07:33.780Z,98114.70
2019-03-08T01:10:00.516Z,98107.88
2019-03-08T01:12:27.237Z,98108.66
2019-03-08T01:14:53.976Z,98126.77
2019-03-08T01:17:23.146Z,98118.89
2019-03-08T01:19:49.878Z,98122.58
2019-03-08T01:22:16.616Z,98119.41
2019-03-08T01:24:43.352Z,98105.49
2019-03-08T01:27:10.100Z,98110.49
2019-03-08T01:29:36.844Z,98103.92
2019-03-08T01:32:05.455Z,98112.86
2019-03-08T01:34:32.265Z,98118.40
2019-03-08T01:36:59.167Z,98128.62
2019-03-08T01:39:25.900Z,98125.72
2019-03-08T01:41:52.624Z,98127.59
2019-03-08T01:44:19.372Z,98127.84
2019-03-08T01:46:46.093Z,98130.20
2019-03-08T01:49:12.851Z,98129.16
2019-03-08T01:51:42.174Z,98131.53
2019-03-08T01:54:08.913Z,98146.25
2019-03-08T01:56:35.656Z,98136.04
2019-03-08T01:59:02.396Z,98145.77
2019-03-08T02:01:29.130Z,98132.36
2019-03-08T02:03:56.204Z,98144.17
2019-03-08T02:06:23.310Z,98156.77
2019-03-08T02:08:51.969Z,98151.77
2019-03-08T02:11:19.123Z,98144.97
2019-03-08T02:13:45.848Z,98155.23
2019-03-08T02:16:12.584Z,98155.47
2019-03-08T02:18:39.299Z,98164.09
2019-03-08T02:21:07.009Z,98162.83
2019-03-08T02:23:34.663Z,98162.83
2019-03-08T02:26:01.394Z,98162.03
2019-03-08T02:28:28.121Z,98167.55
2019-03-08T02:30:54.840Z,98171.50
2019-03-08T02:33:21.570Z,98180.95
2019-03-08T02:35:48.296Z,98190.70
2019-03-08T02:38:15.016Z,98165.72
2019-03-08T02:40:42.020Z,98170.68
2019-03-08T02:43:13.753Z,98163.05
2019-03-08T02:45:40.450Z,98158.84
2019-03-08T02:48:07.196Z,98157.01
2019-03-08T02:50:33.938Z,98160.41
2019-03-08T02:53:00.675Z,98165.67
2019-03-08T02:55:27.415Z,98169.09
2019-03-08T02:57:56.745Z,98180.69
2019-03-08T03:00:25.140Z,98170.98
2019-03-08T03:02:51.850Z,98173.34
2019-03-08T03:05:21.153Z,98176.77
2019-03-08T03:07:48.154Z,98181.73
2019-03-08T03:10:14.865Z,98184.12
2019-03-08T03:12:41.589Z,98180.13
2019-03-08T03:15:11.350Z,98181.97
2019-03-08T03:17:38.072Z,98202.78
2019-03-08T03:20:05.034Z,98201.46
2019-03-08T03:22:31.782Z,98192.77
2019-03-08T03:24:58.528Z,98196.98
2019-03-08T03:27:25.552Z,98198.80
2019-03-08T03:29:52.302Z,98200.88
2019-03-08T03:32:19.047Z,98201.99
2019-03-08T03:34:45.794Z,98211.72
2019-03-08T03:37:12.509Z,98213.28
2019-03-08T03:39:39.247Z,98215.86
2019-03-08T03:42:06.016Z,98198.75
2019-03-08T03:44:32.740Z,98219.00
2019-03-08T03:46:59.467Z,98211.94
2019-03-08T03:49:26.182Z,98211.13
2019-03-08T03:51:53.296Z,98218.23
2019-03-08T03:54:20.021Z,98222.16
2019-03-08T03:56:47.107Z,98222.67
2019-03-08T03:59:16.803Z,98227.47
2019-03-08T04:01:48.203Z,98233.50
2019-03-08T04:04:14.954Z,98230.05
2019-03-08T04:06:41.712Z,98240.08
2019-03-08T04:09:10.446Z,98242.17
2019-03-08T04:11:37.214Z,98238.77
2019-03-08T04:14:05.809Z,98239.84
2019-03-08T04:16:32.566Z,98250.33
2019-03-08T04:18:59.304Z,98253.98
2019-03-08T04:21:27.829Z,98248.44
2019-03-08T04:23:54.559Z,98252.39
2019-03-08T04:26:21.310Z,98255.54
2019-03-08T04:28:48.020Z,98263.41
2019-03-08T04:31:14.763Z,98278.42
2019-03-08T04:33:41.847Z,98269.23
2019-03-08T04:36:08.547Z,98282.90
2019-03-08T04:38:35.393Z,98277.41
2019-03-08T04:41:02.212Z,98280.03
2019-03-08T04:43:28.977Z,98276.31
2019-03-08T04:45:55.699Z,98284.69
2019-03-08T04:48:22.434Z,98285.75
2019-03-08T04:50:49.272Z,98293.90
2019-03-08T04:53:15.981Z,98280.23
2019-03-08T04:55:44.537Z,98304.19
2019-03-08T04:58:11.259Z,98304.19
2019-03-08T05:00:38.160Z,98279.19
2019-03-08T05:03:04.981Z,98288.38
2019-03-08T05:05:31.712Z,98300.98
2019-03-08T05:07:58.703Z,98303.91
2019-03-08T05:10:25.455Z,98303.59
2019-03-08T05:12:52.189Z,98301.52
2019-03-08T05:15:18.908Z,98299.36
2019-03-08T05:17:45.648Z,98305.92
2019-03-08T05:20:12.374Z,98300.47
2019-03-08T05:22:39.098Z,98314.38
2019-03-08T05:25:05.818Z,98317.75
2019-03-08T05:27:33.171Z,98308.53
2019-03-08T05:29:59.898Z,98302.77
2019-03-08T05:32:28.755Z,98311.49
2019-03-08T05:34:55.545Z,98318.06
2019-03-08T05:37:22.289Z,98315.97
2019-03-08T05:39:48.997Z,98323.81
2019-03-08T05:42:15.725Z,98327.23
2019-03-08T05:44:42.759Z,98323.30
2019-03-08T05:47:12.108Z,98324.08
2019-03-08T05:49:38.835Z,98323.00
2019-03-08T05:52:07.801Z,98337.43
2019-03-08T05:54:34.539Z,98341.97
2019-03-08T05:57:01.238Z,98353.78
2019-03-08T05:59:29.646Z,98351.64
2019-03-08T06:01:56.374Z,98351.64
2019-03-08T06:04:24.126Z,98375.54
2019-03-08T06:06:52.795Z,98375.54
2019-03-08T06:09:22.523Z,98363.47
2019-03-08T06:11:49.987Z,98383.48
2019-03-08T06:14:16.695Z,98379.69
2019-03-08T06:16:43.817Z,98395.23
2019-03-08T06:19:10.540Z,98390.54
2019-03-08T06:21:37.313Z,98391.28
2019-03-08T06:24:04.048Z,98405.30
2019-03-08T06:26:30.850Z,98405.81
2019-03-08T06:28:57.603Z,98406.08
2019-03-08T06:31:26.359Z,98410.54
2019-03-08T06:33:53.197Z,98413.65
2019-03-08T06:36:20.247Z,98404.67
2019-03-08T06:38:48.915Z,98422.31
2019-03-08T06:41:15.667Z,98417.11
2019-03-08T06:43:42.523Z,98422.63
2019-03-08T06:46:09.252Z,98430.25
2019-03-08T06:48:36.377Z,98428.73
2019-03-08T06:51:03.099Z,98438.09
2019-03-08T06:53:29.941Z,98440.23
2019-03-08T06:55:57.722Z,98439.17
2019-03-08T06:58:45.197Z,98449.97
2019-03-08T07:01:19.431Z,98458.95
2019-03-08T07:03:46.377Z,98457.09
2019-03-08T07:06:13.099Z,98479.27
2019-03-08T07:08:41.153Z,98466.83
2019-03-08T07:11:10.707Z,98474.95
2019-03-08T07:13:37.575Z,98469.11
2019-03-08T07:16:12.640Z,98468.55
2019-03-08T07:18:32.933Z,98475.35
2019-03-08T07:21:08.931Z,98488.79
2019-03-08T07:23:42.634Z,98483.50
2019-03-08T07:26:41.532Z,98505.84
2019-03-08T07:29:16.460Z,98486.08
2019-03-08T07:32:06.235Z,98498.96
2019-03-08T07:34:51.210Z,98494.77
2019-03-08T07:37:28.365Z,98522.59
2019-03-08T07:40:27.046Z,98520.78
2019-03-08T07:43:31.771Z,98540.19
2019-03-08T07:46:20.682Z,98539.95
2019-03-08T07:48:57.553Z,98534.70
2019-03-08T07:51:42.783Z,98537.86
2019-03-08T07:54:18.877Z,98548.40
2019-03-08T07:56:52.560Z,98552.63
2019-03-08T07:59:42.836Z,98557.85
2019-03-08T08:02:31.648Z,98564.97
2019-03-08T08:05:24.601Z,98579.67
2019-03-08T08:08:08.820Z,98579.16
2019-03-08T08:10:57.980Z,98593.12
2019-03-08T08:13:52.773Z,98596.83
2019-03-08T08:16:41.666Z,98595.20
2019-03-08T08:19:40.633Z,98597.08
2019-03-08T08:22:20.726Z,98600.45
2019-03-08T08:25:00.942Z,98607.24
2019-03-08T08:27:37.838Z,98615.46
2019-03-08T08:30:16.974Z,98608.60
2019-03-08T08:33:02.161Z,98617.31
2019-03-08T08:36:01.092Z,98623.95
2019-03-08T08:38:55.609Z,98621.36
2019-03-08T08:41:47.766Z,98634.70
2019-03-08T08:44:43.161Z,98640.79
2019-03-08T08:47:32.479Z,98645.02
2019-03-08T08:50:07.043Z,98652.16
2019-03-08T08:52:40.445Z,98657.83
2019-03-08T08:55:25.474Z,98658.63
2019-03-08T08:58:23.826Z,98658.65
2019-03-08T09:01:13.070Z,98663.12
2019-03-08T09:03:58.224Z,98666.27
2019-03-08T09:06:36.274Z,98666.77
2019-03-08T09:09:33.616Z,98685.48
2019-03-08T09:12:11.742Z,98692.84
2019-03-08T09:15:00.961Z,98702.78
2019-03-08T09:17:42.846Z,98697.81
2019-03-08T09:20:29.353Z,98717.09
2019-03-08T09:23:10.111Z,98716.78
2019-03-08T09:25:49.850Z,98724.35
2019-03-08T09:28:36.351Z,98737.47
2019-03-08T09:31:16.832Z,98731.19
2019-03-08T09:34:01.939Z,98727.33
2019-03-08T09:36:38.214Z,98737.64
2019-03-08T09:39:15.512Z,98740.20
2019-03-08T09:42:04.779Z,98743.61
2019-03-08T09:44:51.147Z,98753.25
2019-03-08T09:47:37.416Z,98747.01
2019-03-08T09:50:23.167Z,98739.62
2019-03-08T09:53:21.665Z,98750.39
2019-03-08T09:55:56.467Z,98749.33
2019-03-08T09:58:41.958Z,98762.56
2019-03-08T10:01:20.051Z,98766.62
2019-03-08T10:04:06.482Z,98766.36
2019-03-08T10:06:54.387Z,98769.53
2019-03-08T10:10:01.679Z,98770.56
2019-03-08T10:12:48.064Z,98778.12
2019-03-08T10:15:36.120Z,98777.38
2019-03-08T10:18:27.355Z,98771.57
2019-03-08T10:21:25.793Z,98786.78
2019-03-08T10:24:11.298Z,98786.30
2019-03-08T10:27:06.588Z,98795.99
2019-03-08T10:30:05.093Z,98803.37
2019-03-08T10:32:40.849Z,98801.28
2019-03-08T10:35:37.040Z,98809.23
2019-03-08T10:38:22.509Z,98803.20
2019-03-08T10:41:09.264Z,98803.14
2019-03-08T10:43:55.734Z,98804.34
2019-03-08T10:46:48.220Z,98809.12
2019-03-08T10:49:42.099Z,98806.28
2019-03-08T10:52:37.208Z,98823.22
2019-03-08T10:55:20.051Z,98825.62
2019-03-08T10:58:05.074Z,98821.33
2019-03-08T11:00:47.482Z,98835.80
2019-03-08T11:03:40.192Z,98834.28
2019-03-08T11:06:13.838Z,98840.86
2019-03-08T11:09:03.099Z,98855.11
2019-03-08T11:11:54.436Z,98842.49
2019-03-08T11:14:35.396Z,98859.45
2019-03-08T11:17:20.378Z,98864.20
2019-03-08T11:20:07.087Z,98864.77
2019-03-08T11:22:43.367Z,98872.90
2019-03-08T11:25:34.814Z,98863.40
2019-03-08T11:28:21.301Z,98877.56
2019-03-08T11:31:17.374Z,98879.97
2019-03-08T11:34:03.788Z,98877.45
2019-03-08T11:36:49.865Z,98877.08
2019-03-08T11:39:35.040Z,98886.92
2019-03-08T11:42:19.724Z,98893.57
2019-03-08T11:44:55.774Z,98883.31
2019-03-08T11:47:42.164Z,98894.17
2019-03-08T11:50:28.842Z,98892.37
2019-03-08T11:53:02.595Z,98895.06
2019-03-08T11:55:42.826Z,98894.59
2019-03-08T11:58:27.773Z,98895.94
2019-03-08T12:01:14.332Z,98897.08
2019-03-08T12:04:00.735Z,98901.00
2019-03-08T12:06:40.530Z,98898.81
2019-03-08T12:09:21.436Z,98899.64
2019-03-08T12:12:07.411Z,98897.98
2019-03-08T12:15:04.580Z,98896.96
2019-03-08T12:17:50.936Z,98904.05
2019-03-08T12:20:26.853Z,98923.28
2019-03-08T12:23:21.936Z,98894.33
2019-03-08T12:26:08.611Z,98899.64
2019-03-08T12:28:45.537Z,98900.02
2019-03-08T12:31:30.196Z,98898.48
2019-03-08T12:34:15.115Z,98895.28
2019-03-08T12:36:49.970Z,98898.15
2019-03-08T12:39:30.471Z,98896.86
2019-03-08T12:42:25.958Z,98908.52
2019-03-08T12:45:01.138Z,98908.08
2019-03-08T12:47:53.298Z,98903.98
2019-03-08T12:50:37.665Z,98889.73
2019-03-08T12:53:39.266Z,98897.17
2019-03-08T12:56:22.596Z,98884.51
2019-03-08T12:59:07.711Z,98901.40
2019-03-08T13:01:47.078Z,98894.52
2019-03-08T13:04:43.004Z,98925.11
2019-03-08T13:07:22.529Z,98934.20
2019-03-08T13:09:49.336Z,98945.91
2019-03-08T13:12:16.808Z,98944.58
2019-03-08T13:14:43.507Z,98932.10
2019-03-08T13:17:10.415Z,98938.86
2019-03-08T13:19:40.182Z,98939.77
2019-03-08T13:22:06.956Z,98925.31
2019-03-08T13:24:33.985Z,98930.90
2019-03-08T13:27:00.694Z,98943.61
2019-03-08T13:29:27.533Z,98948.87
2019-03-08T13:31:54.243Z,98935.39
2019-03-08T13:34:20.966Z,98929.32
2019-03-08T13:36:47.976Z,98931.67
2019-03-08T13:39:15.039Z,98934.45
2019-03-08T13:41:43.670Z,98940.18
2019-03-08T13:44:10.400Z,98938.69
2019-03-08T13:46:37.155Z,98939.80
2019-03-08T13:49:03.861Z,98945.58
2019-03-08T13:51:30.595Z,98935.00
2019-03-08T13:53:57.354Z,98955.78
2019-03-08T13:56:24.070Z,98957.02
2019-03-08T13:58:50.858Z,98957.24
2019-03-08T14:01:17.571Z,98972.50
2019-03-08T14:03:44.436Z,98956.09
2019-03-08T14:06:11.373Z,98960.45
2019-03-08T14:08:38.193Z,98957.98
2019-03-08T14:11:07.849Z,98960.92
2019-03-08T14:13:34.525Z,98962.51
2019-03-08T14:16:01.288Z,98956.70
2019-03-08T14:18:28.273Z,98950.33
2019-03-08T14:20:55.151Z,98954.52
2019-03-08T14:23:21.993Z,98946.28
2019-03-08T14:25:48.681Z,98987.96
2019-03-08T14:28:15.400Z,98947.03
2019-03-08T14:30:57.769Z,98953.34
2019-03-08T14:33:19.878Z,98941.72
2019-03-08T14:35:46.626Z,98942.03
2019-03-08T14:38:13.517Z,98953.61
2019-03-08T14:40:53.254Z,98950.13
2019-03-08T14:43:29.445Z,98944.59
2019-03-08T14:46:03.884Z,98950.59
2019-03-08T14:48:30.735Z,98952.78
2019-03-08T14:50:57.847Z,98950.66
2019-03-08T14:53:28.335Z,98957.77
2019-03-08T14:55:59.102Z,98948.81
2019-03-08T14:58:23.944Z,98950.13
2019-03-08T15:00:50.640Z,98944.31
2019-03-08T15:03:20.276Z,98955.77
2019-03-08T15:05:54.878Z,98946.12
2019-03-08T15:08:20.059Z,98952.00
2019-03-08T15:10:47.392Z,98938.78
2019-03-08T15:13:15.538Z,98937.17
2019-03-08T15:15:45.050Z,98934.28
2019-03-08T15:18:12.290Z,98941.67
2019-03-08T15:20:39.010Z,98924.77
2019-03-08T15:23:05.993Z,98927.96
2019-03-08T15:25:32.735Z,98923.72
2019-03-08T15:27:59.457Z,98932.19
2019-03-08T15:30:26.192Z,98930.58
2019-03-08T15:32:56.185Z,98919.72
2019-03-08T15:35:23.001Z,98915.49
2019-03-08T15:37:53.426Z,98916.55
2019-03-08T15:40:20.323Z,98924.20
2019-03-08T15:42:47.031Z,98910.21
2019-03-08T15:45:17.638Z,98922.35
2019-03-08T15:47:44.734Z,98919.98
2019-03-08T15:50:13.593Z,98918.66
2019-03-08T15:52:40.655Z,98930.84
2019-03-08T15:55:07.504Z,98935.03
2019-03-08T15:57:34.333Z,98916.53
2019-03-08T16:00:01.958Z,98919.72
2019-03-08T16:02:31.129Z,98920.24
2019-03-08T16:04:57.855Z,98909.95
2019-03-08T16:07:27.048Z,98923.95
2019-03-08T16:09:53.320Z,98922.88
2019-03-08T16:12:20.053Z,98923.67
2019-03-08T16:14:46.744Z,98925.52
2019-03-08T16:17:13.542Z,98936.11
2019-03-08T16:19:40.723Z,98928.19
2019-03-08T16:22:08.727Z,98935.81
2019-03-08T16:24:35.521Z,98932.38
2019-03-08T16:27:03.596Z,98950.09
2019-03-08T16:29:33.789Z,98930.53
2019-03-08T16:32:20.440Z,98933.44
2019-03-08T16:34:49.045Z,98936.59
2019-03-08T16:37:27.618Z,98946.09
2019-03-08T16:40:17.934Z,98946.89
2019-03-08T16:43:07.624Z,98945.84
2019-03-08T16:45:50.654Z,98940.28
2019-03-08T16:48:27.727Z,98938.95
2019-03-08T16:51:09.142Z,98949.25
2019-03-08T16:53:41.119Z,98942.64
2019-03-08T16:56:32.259Z,98961.92
2019-03-08T16:59:18.096Z,98952.94
2019-03-08T17:02:07.451Z,98955.53
2019-03-08T17:04:45.069Z,98960.80
2019-03-08T17:07:29.288Z,98958.43
2019-03-08T17:10:08.053Z,98964.53
2019-03-08T17:12:54.403Z,98962.92
2019-03-08T17:15:59.159Z,98960.80
2019-03-08T17:18:42.675Z,98974.29
2019-03-08T17:21:27.813Z,98970.81
2019-03-08T17:24:08.115Z,98977.97
2019-03-08T17:27:00.324Z,98980.05
2019-03-08T17:29:34.670Z,98979.23
2019-03-08T17:32:19.644Z,98981.86
2019-03-08T17:35:17.706Z,98985.29
2019-03-08T17:37:53.308Z,98993.97
2019-03-08T17:40:28.075Z,98989.77
2019-03-08T17:43:05.412Z,98995.55
2019-03-08T17:45:49.827Z,98996.86
2019-03-08T17:48:34.830Z,98327.05
2019-03-08T17:51:20.180Z,98995.23
2019-03-08T17:54:10.102Z,98994.75
2019-03-08T17:56:48.287Z,98993.59
2019-03-08T17:59:37.915Z,98994.84
2019-03-08T18:02:11.267Z,98988.42
2019-03-08T18:04:56.552Z,98998.17
2019-03-08T18:07:43.172Z,98989.97
2019-03-08T18:10:21.815Z,98991.56
2019-03-08T18:13:06.629Z,98990.83
2019-03-08T18:15:51.800Z,98987.87
2019-03-08T18:18:38.169Z,99011.38
2019-03-08T18:21:11.059Z,98995.32
2019-03-08T18:23:49.701Z,99018.80
2019-03-08T18:26:26.638Z,99033.54
2019-03-08T18:29:03.255Z,98990.54
2019-03-08T18:32:04.791Z,99008.46
2019-03-08T18:34:39.408Z,98992.95
2019-03-08T18:37:14.910Z,99006.39
2019-03-08T18:40:13.253Z,99014.58
2019-03-08T18:42:49.523Z,99006.92
2019-03-08T18:45:38.057Z,99007.23
2019-03-08T18:48:15.947Z,99005.41
2019-03-08T18:51:11.320Z,99045.43
2019-03-08T18:54:03.766Z,99010.06
2019-03-08T18:56:48.452Z,99006.84
2019-03-08T18:59:40.458Z,99017.47
2019-03-08T19:02:28.988Z,99015.35
2019-03-08T19:05:24.387Z,99028.59
2019-03-08T19:08:13.586Z,99011.69
2019-03-08T19:11:15.006Z,99019.08
2019-03-08T19:13:59.779Z,99016.95
2019-03-08T19:16:46.222Z,99017.67
2019-03-08T19:19:22.740Z,99025.89
2019-03-08T19:22:26.676Z,99022.97
2019-03-08T19:25:08.961Z,99015.77
2019-03-08T19:27:43.593Z,99028.41
2019-03-08T19:30:35.625Z,99028.22
2019-03-08T19:33:31.492Z,99036.91
2019-03-08T19:36:07.519Z,99031.38
2019-03-08T19:38:41.093Z,99035.84
2019-03-08T19:41:26.187Z,99041.07
2019-03-08T19:44:09.616Z,99042.14
2019-03-08T19:46:59.581Z,99042.94
2019-03-08T19:49:32.383Z,99040.58
2019-03-08T19:52:28.026Z,99043.24
2019-03-08T19:55:06.202Z,99048.20
2019-03-08T19:57:56.303Z,99038.77
2019-03-08T20:00:41.480Z,99032.39
2019-03-08T20:03:26.712Z,99042.67
2019-03-08T20:05:59.592Z,99065.86
2019-03-08T20:08:38.170Z,99047.69
2019-03-08T20:11:17.456Z,99041.88
2019-03-08T20:14:10.243Z,99040.80
2019-03-08T20:16:56.604Z,99037.38
2019-03-08T20:19:41.610Z,99038.98
2019-03-08T20:22:32.579Z,99046.34
2019-03-08T20:25:06.516Z,99046.96
2019-03-08T20:27:46.236Z,99041.88
2019-03-08T20:30:38.770Z,99047.66
2019-03-08T20:33:34.168Z,99032.16
2019-03-08T20:36:15.260Z,99031.59
2019-03-08T20:39:04.672Z,99026.52
2019-03-08T20:41:45.595Z,99021.06
2019-03-08T20:44:16.728Z,99020.22
2019-03-08T20:46:56.591Z,99025.00
2019-03-08T20:49:23.435Z,99020.48
2019-03-08T20:51:50.110Z,99031.54
2019-03-08T20:54:16.814Z,99026.99
2019-03-08T20:56:48.075Z,99024.44
2019-03-08T20:59:15.704Z,99035.96
2019-03-08T21:01:44.161Z,99037.84
2019-03-08T21:04:10.987Z,99035.98
2019-03-08T21:06:39.036Z,99029.11
2019-03-08T21:09:06.372Z,99024.09
2019-03-08T21:11:33.902Z,99028.25
2019-03-08T21:14:00.597Z,99018.77
2019-03-08T21:16:28.806Z,99026.73
2019-03-08T21:18:55.560Z,99027.80
2019-03-08T21:21:22.618Z,99025.67
2019-03-08T21:23:49.537Z,99022.98
2019-03-08T21:26:16.256Z,99016.98
2019-03-08T21:28:42.980Z,99022.26
2019-03-08T21:31:09.721Z,99011.36
2019-03-08T21:33:36.422Z,99024.02
2019-03-08T21:36:03.213Z,98311.23
2019-03-08T21:38:29.951Z,99007.59
2019-03-08T21:40:56.715Z,99007.05
2019-03-08T21:43:24.764Z,99005.95
2019-03-08T21:45:51.519Z,98999.68
2019-03-08T21:48:18.235Z,99009.91
2019-03-08T21:50:44.954Z,99000.48
2019-03-08T21:53:12.238Z,99000.22
2019-03-08T21:55:40.067Z,98994.13
2019-03-08T21:58:07.003Z,98993.33
2019-03-08T22:00:33.794Z,99003.01
2019-03-08T22:03:00.485Z,99003.32
2019-03-08T22:05:30.325Z,98999.45
2019-03-08T22:07:57.177Z,98986.52
2019-03-08T22:10:45.420Z,98988.83
2019-03-08T22:13:12.332Z,98981.47
2019-03-08T22:15:39.025Z,98979.45
2019-03-08T22:18:05.752Z,98972.59
2019-03-08T22:20:32.849Z,98966.31
2019-03-08T22:22:59.551Z,98956.31
2019-03-08T22:25:26.275Z,98950.99
2019-03-08T22:27:53.027Z,98945.13
2019-03-08T22:30:19.773Z,98934.29
2019-03-08T22:32:48.764Z,98946.64
2019-03-08T22:35:15.608Z,98948.42
2019-03-08T22:37:42.299Z,98939.00
2019-03-08T22:40:11.817Z,98935.28
2019-03-08T22:42:40.076Z,98926.77
2019-03-08T22:45:09.171Z,98921.95
2019-03-08T22:47:36.209Z,98924.10
2019-03-08T22:50:03.107Z,98922.27
2019-03-08T22:52:29.825Z,98919.49
2019-03-08T22:54:57.217Z,98915.81
2019-03-08T22:57:23.960Z,98920.81
2019-03-08T22:59:51.000Z,98922.64
2019-03-08T23:02:17.726Z,98913.42
2019-03-08T23:04:44.882Z,98916.34
2019-03-08T23:07:11.689Z,98905.78
2019-03-08T23:09:38.494Z,98909.45
2019-03-08T23:12:05.230Z,98902.61
2019-03-08T23:14:33.242Z,98901.52
2019-03-08T23:16:59.973Z,98883.08
2019-03-08T23:19:26.681Z,98887.27
2019-03-08T23:21:53.397Z,98882.53
2019-03-08T23:24:22.207Z,98888.13
2019-03-08T23:27:12.018Z,98886.52
2019-03-08T23:29:47.675Z,98875.97
2019-03-08T23:32:36.168Z,98875.97
2019-03-08T23:35:03.012Z,98884.66
2019-03-08T23:37:29.853Z,98882.82
2019-03-08T23:39:56.553Z,98884.94
2019-03-08T23:42:23.309Z,98875.11
2019-03-08T23:44:50.050Z,98881.22
2019-03-08T23:47:17.038Z,98876.21
2019-03-08T23:49:43.793Z,98872.27
2019-03-08T23:52:10.543Z,98860.64
2019-03-08T23:54:37.269Z,98859.82
2019-03-08T23:57:03.985Z,98863.25
2019-03-08T23:59:32.232Z,98856.72
